Time;durP1;ratioP1;P1;durP2;ratioP2;P2;SDS_P1;SDS_P2;PMS_P1;PMS_P2;Temp;Humidity;BMP_temperature;BMP_pressure;BME280_temperature;BME280_humidity;BME280_pressure;Samples;Min_cycle;Max_cycle;Signal;HPM_P1;HPM_P2
2022/03/08 00:00:28;;;;;;;9.73;7.10;;;-4.70;99.90;;;;;;4362709;32;20074;-63
2022/03/08 00:02:55;;;;;;;10.23;6.50;;;-4.60;99.90;;;;;;4362138;32;20067;-63
2022/03/08 00:05:22;;;;;;;10.20;6.35;;;-4.60;99.90;;;;;;4362228;32;20090;-63
2022/03/08 00:07:49;;;;;;;10.88;6.43;;;-4.60;99.90;;;;;;4376009;32;20087;-63
2022/03/08 00:10:16;;;;;;;10.23;6.10;;;-4.60;99.90;;;;;;4349848;32;20085;-63
2022/03/08 00:12:46;;;;;;;10.65;7.03;;;-4.80;99.90;;;;;;4350563;32;20074;-63
2022/03/08 00:15:24;;;;;;;9.30;6.80;;;-4.60;99.90;;;;;;4337920;32;20077;-63
2022/03/08 00:17:52;;;;;;;10.95;6.95;;;-4.60;99.90;;;;;;4375903;32;20089;-63
2022/03/08 00:20:19;;;;;;;9.57;7.35;;;-4.70;99.90;;;;;;4364814;32;20446;-63
2022/03/08 00:22:46;;;;;;;8.88;5.82;;;-4.80;99.90;;;;;;4379251;32;20084;-62
2022/03/08 00:25:13;;;;;;;9.30;6.82;;;-4.80;99.90;;;;;;4365084;32;20090;-63
2022/03/08 00:27:45;;;;;;;10.30;6.90;;;-5.00;99.90;;;;;;4365933;32;20520;-62
2022/03/08 00:30:14;;;;;;;11.38;6.90;;;-4.70;99.90;;;;;;4366266;32;20154;-64
2022/03/08 00:32:41;;;;;;;10.82;7.28;;;-4.70;99.90;;;;;;4365077;32;20160;-63
2022/03/08 00:35:08;;;;;;;11.25;7.15;;;-4.80;99.90;;;;;;4352218;32;20459;-63
2022/03/08 00:37:34;;;;;;;10.50;6.93;;;-4.80;99.90;;;;;;4365274;32;20074;-63
2022/03/08 00:40:01;;;;;;;10.90;7.55;;;-4.60;99.90;;;;;;4379016;32;20234;-63
2022/03/08 00:42:28;;;;;;;10.95;6.72;;;-4.60;99.90;;;;;;4364922;32;20097;-63
2022/03/08 00:44:54;;;;;;;10.77;7.37;;;-4.50;99.90;;;;;;4378894;32;20090;-63
2022/03/08 00:47:20;;;;;;;12.35;7.75;;;-4.40;99.90;;;;;;4365981;32;20098;-63
2022/03/08 00:49:47;;;;;;;10.27;6.70;;;-4.70;99.90;;;;;;4353233;32;20500;-62
2022/03/08 00:52:13;;;;;;;11.00;6.80;;;-4.80;99.90;;;;;;4379285;32;20167;-63
2022/03/08 00:54:39;;;;;;;11.25;7.57;;;-4.80;99.90;;;;;;4366172;32;20084;-62
2022/03/08 00:57:06;;;;;;;8.60;6.47;;;-4.70;99.90;;;;;;4364820;32;20108;-64
2022/03/08 00:59:33;;;;;;;11.18;7.40;;;-4.70;99.90;;;;;;4364649;32;20082;-63
2022/03/08 01:01:59;;;;;;;11.18;7.22;;;-4.60;99.90;;;;;;4364676;32;20145;-62
2022/03/08 01:04:26;;;;;;;12.25;7.45;;;-4.60;99.90;;;;;;4378398;32;20070;-63
2022/03/08 01:06:55;;;;;;;9.88;6.80;;;-4.80;99.90;;;;;;4352377;32;20453;-63
2022/03/08 01:09:22;;;;;;;9.18;6.32;;;-4.70;99.90;;;;;;4364886;32;20077;-63
2022/03/08 01:11:49;;;;;;;10.95;6.97;;;-4.90;99.90;;;;;;4378197;32;20082;-62
2022/03/08 01:14:15;;;;;;;11.05;6.75;;;-4.70;99.90;;;;;;4378209;32;20145;-63
2022/03/08 01:16:41;;;;;;;12.18;7.05;;;-4.80;99.90;;;;;;4364157;32;20089;-62
2022/03/08 01:19:08;;;;;;;9.95;6.37;;;-4.60;99.90;;;;;;4364533;32;20085;-63
2022/03/08 01:21:38;;;;;;;10.45;6.97;;;-4.80;99.90;;;;;;4364942;32;20076;-63
2022/03/08 01:24:05;;;;;;;9.13;6.32;;;-4.70;99.90;;;;;;4364499;32;20085;-63
2022/03/08 01:26:32;;;;;;;10.68;6.53;;;-4.70;99.90;;;;;;4364417;32;20071;-63
2022/03/08 01:29:00;;;;;;;11.63;6.50;;;-4.80;99.90;;;;;;4352101;32;20078;-63
2022/03/08 01:31:26;;;;;;;9.07;6.68;;;-4.80;99.90;;;;;;4363710;32;20073;-62
2022/03/08 01:33:56;;;;;;;9.07;5.90;;;-4.70;99.90;;;;;;4352344;32;20070;-62
2022/03/08 01:36:24;;;;;;;9.93;6.05;;;-4.80;99.90;;;;;;4378278;32;20597;-63
2022/03/08 01:38:50;;;;;;;8.65;6.22;;;-5.00;99.90;;;;;;4363820;32;20082;-63
2022/03/08 01:41:18;;;;;;;9.52;5.90;;;-5.00;99.90;;;;;;4364333;32;20070;-63
2022/03/08 01:43:45;;;;;;;9.65;6.22;;;-5.00;99.90;;;;;;4363980;32;20105;-63
2022/03/08 01:46:13;;;;;;;8.60;6.32;;;-4.90;99.90;;;;;;4364230;32;20082;-63
2022/03/08 01:48:39;;;;;;;8.00;6.05;;;-4.90;99.90;;;;;;4364066;32;20082;-63
2022/03/08 01:51:06;;;;;;;9.80;6.07;;;-4.80;99.90;;;;;;4378271;32;20157;-62
2022/03/08 01:53:34;;;;;;;9.32;6.28;;;-4.90;99.90;;;;;;4364701;32;20084;-63
2022/03/08 01:56:00;;;;;;;8.45;5.47;;;-4.90;99.90;;;;;;4363899;32;20154;-63
2022/03/08 01:58:27;;;;;;;10.90;5.95;;;-4.90;99.90;;;;;;4377756;32;20583;-62
2022/03/08 02:00:53;;;;;;;9.35;6.18;;;-4.90;99.90;;;;;;4363988;32;20541;-63
2022/03/08 02:03:19;;;;;;;8.85;5.78;;;-4.90;99.90;;;;;;4363999;32;20082;-63
2022/03/08 02:05:46;;;;;;;9.40;5.80;;;-4.80;99.90;;;;;;4351529;32;20078;-62
2022/03/08 02:08:13;;;;;;;7.93;5.65;;;-4.90;99.90;;;;;;4364002;32;20159;-63
2022/03/08 02:10:40;;;;;;;9.38;6.15;;;-4.80;99.90;;;;;;4377418;32;20092;-62
2022/03/08 02:13:06;;;;;;;9.70;6.55;;;-4.90;99.90;;;;;;4363547;32;20081;-63
2022/03/08 02:15:32;;;;;;;9.27;5.78;;;-4.70;99.90;;;;;;4377517;32;20088;-63
2022/03/08 02:18:01;;;;;;;9.02;6.25;;;-4.90;99.90;;;;;;4363771;32;20089;-62
2022/03/08 02:20:28;;;;;;;11.02;6.28;;;-4.80;99.90;;;;;;4351339;32;20081;-62
2022/03/08 02:22:56;;;;;;;8.50;6.30;;;-4.80;99.90;;;;;;4377513;32;20082;-63
2022/03/08 02:25:23;;;;;;;10.02;5.75;;;-4.70;99.90;;;;;;4363603;32;20165;-63
2022/03/08 02:27:54;;;;;;;10.02;6.68;;;-4.80;99.90;;;;;;4352027;32;20101;-63
2022/03/08 02:30:23;;;;;;;10.75;6.53;;;-4.80;99.90;;;;;;4363776;32;20078;-63
2022/03/08 02:32:49;;;;;;;11.23;7.10;;;-4.70;99.90;;;;;;4377049;32;20082;-62
2022/03/08 02:35:26;;;;;;;12.40;8.40;;;-4.70;99.90;;;;;;4363946;32;20157;-62
2022/03/08 02:37:59;;;;;;;9.32;6.47;;;-4.60;99.90;;;;;;4350670;32;20094;-64
2022/03/08 02:40:34;;;;;;;9.30;6.07;;;-4.60;99.90;;;;;;4363625;32;20078;-62
2022/03/08 02:43:00;;;;;;;10.10;7.30;;;-4.70;99.90;;;;;;4362936;32;20494;-63
2022/03/08 02:45:27;;;;;;;9.18;5.90;;;-4.60;99.90;;;;;;4350881;32;20085;-62
2022/03/08 02:47:54;;;;;;;11.82;6.72;;;-4.70;99.90;;;;;;4366259;32;20094;-60
2022/03/08 02:50:21;;;;;;;9.57;6.00;;;-4.80;99.90;;;;;;4376900;32;20082;-63
2022/03/08 02:52:51;;;;;;;12.32;6.62;;;-4.90;99.90;;;;;;4376828;32;20077;-61
2022/03/08 02:55:22;;;;;;;8.55;5.87;;;-4.80;99.90;;;;;;4376672;32;20085;-62
2022/03/08 02:57:49;;;;;;;8.00;4.80;;;-4.70;99.90;;;;;;4376504;32;20163;-63
2022/03/08 03:00:19;;;;;;;8.52;4.87;;;-4.80;99.90;;;;;;4349930;32;20478;-63
2022/03/08 03:02:46;;;;;;;10.55;6.28;;;-4.90;99.90;;;;;;4362715;32;20536;-62
2022/03/08 03:05:13;;;;;;;9.75;5.62;;;-4.80;99.90;;;;;;4376553;32;20161;-62
2022/03/08 03:07:40;;;;;;;9.20;6.03;;;-4.80;99.90;;;;;;4376356;32;20537;-63
2022/03/08 03:10:10;;;;;;;9.05;5.53;;;-5.00;99.90;;;;;;4363098;32;20085;-64
2022/03/08 03:12:36;;;;;;;8.23;5.43;;;-5.00;99.90;;;;;;4362531;32;20097;-63
2022/03/08 03:15:07;;;;;;;9.65;6.32;;;-5.10;99.90;;;;;;4376223;32;20077;-63
2022/03/08 03:17:33;;;;;;;9.75;6.18;;;-5.00;99.90;;;;;;4337774;32;20094;-63
2022/03/08 03:19:59;;;;;;;9.55;5.75;;;-5.10;99.90;;;;;;4362599;32;20511;-62
2022/03/08 03:22:26;;;;;;;10.70;6.30;;;-5.10;99.90;;;;;;4376318;32;20510;-61
2022/03/08 03:24:52;;;;;;;9.70;6.40;;;-5.00;99.90;;;;;;4362466;32;20076;-63
2022/03/08 03:27:18;;;;;;;8.95;5.85;;;-4.80;99.90;;;;;;4376431;32;20074;-61
2022/03/08 03:29:45;;;;;;;8.40;5.55;;;-4.80;99.90;;;;;;4376089;32;20152;-62
2022/03/08 03:32:11;;;;;;;9.15;5.57;;;-4.70;99.90;;;;;;4349597;32;20078;-62
2022/03/08 03:34:37;;;;;;;10.10;6.40;;;-4.80;99.90;;;;;;4362866;32;20138;-62
2022/03/08 03:39:38;;;;;;;8.60;5.43;;;-4.90;99.90;;;;;;3857350;37;20062;-62
2022/03/08 03:42:05;;;;;;;8.00;5.15;;;-4.90;99.90;;;;;;4420542;32;20163;-62
2022/03/08 03:44:31;;;;;;;9.98;6.22;;;-4.90;99.90;;;;;;4419520;32;20156;-63
2022/03/08 03:46:58;;;;;;;8.43;5.47;;;-4.80;99.90;;;;;;4420200;32;20160;-62
2022/03/08 03:49:24;;;;;;;9.32;5.90;;;-4.90;99.90;;;;;;4393157;32;20077;-64
2022/03/08 03:51:51;;;;;;;8.40;5.47;;;-4.80;99.90;;;;;;4419534;32;20093;-63
2022/03/08 03:54:18;;;;;;;9.88;6.32;;;-4.80;99.90;;;;;;4419642;32;20061;-63
2022/03/08 03:56:45;;;;;;;9.38;6.60;;;-4.70;99.90;;;;;;4392662;32;20080;-63
2022/03/08 03:59:12;;;;;;;8.50;5.37;;;-4.60;99.90;;;;;;4405362;32;20092;-62
2022/03/08 04:01:39;;;;;;;7.75;5.40;;;-4.90;99.90;;;;;;4419543;32;20079;-63
2022/03/08 04:04:05;;;;;;;11.10;5.97;;;-4.90;99.90;;;;;;4418153;32;20077;-62
2022/03/08 04:06:32;;;;;;;6.95;4.75;;;-4.80;99.90;;;;;;4419435;32;20073;-63
2022/03/08 04:09:00;;;;;;;10.15;6.15;;;-4.80;99.90;;;;;;4418080;32;20077;-63
2022/03/08 04:11:26;;;;;;;9.75;6.35;;;-4.60;99.90;;;;;;4417967;32;20085;-63
2022/03/08 04:13:53;;;;;;;9.73;6.55;;;-4.50;99.90;;;;;;4405441;32;20459;-63
2022/03/08 04:16:19;;;;;;;10.20;6.28;;;-4.60;99.90;;;;;;4418328;32;20078;-62
2022/03/08 04:18:45;;;;;;;9.63;5.68;;;-4.70;99.90;;;;;;4419333;32;20156;-62
2022/03/08 04:21:12;;;;;;;10.88;6.57;;;-4.90;99.90;;;;;;4417742;32;20089;-63
2022/03/08 04:23:38;;;;;;;9.52;6.65;;;-4.90;99.90;;;;;;4419284;32;20072;-63
2022/03/08 04:26:04;;;;;;;8.95;6.05;;;-4.80;99.90;;;;;;4417548;32;20527;-63
2022/03/08 04:28:30;;;;;;;10.68;6.57;;;-4.70;99.90;;;;;;4405720;32;20085;-62
2022/03/08 04:30:57;;;;;;;10.15;6.50;;;-4.60;99.90;;;;;;4419624;32;20084;-62
2022/03/08 04:33:23;;;;;;;9.65;6.20;;;-4.40;99.90;;;;;;4417715;32;20089;-63
2022/03/08 04:35:50;;;;;;;10.80;6.87;;;-4.50;99.90;;;;;;4418858;32;20066;-62
2022/03/08 04:38:16;;;;;;;9.77;6.57;;;-4.30;99.90;;;;;;4418431;32;20181;-63
2022/03/08 04:40:42;;;;;;;10.95;6.80;;;-4.30;99.90;;;;;;4417373;32;20522;-62
2022/03/08 04:43:09;;;;;;;10.88;6.50;;;-4.10;99.90;;;;;;4392373;32;20137;-62
2022/03/08 04:45:35;;;;;;;10.05;6.12;;;-4.30;99.90;;;;;;4404816;32;20104;-63
2022/03/08 04:48:02;;;;;;;10.80;6.93;;;-4.20;99.90;;;;;;4418858;32;20184;-62
2022/03/08 04:50:28;;;;;;;10.15;6.07;;;-3.90;99.90;;;;;;4410736;32;20097;-62
2022/03/08 04:52:54;;;;;;;9.35;6.12;;;-4.10;99.90;;;;;;4408677;32;20080;-64
2022/03/08 04:55:21;;;;;;;10.52;6.65;;;-4.00;99.90;;;;;;4407255;32;20511;-62
2022/03/08 04:57:48;;;;;;;11.27;6.50;;;-3.90;99.90;;;;;;4407156;32;20508;-64
2022/03/08 05:00:16;;;;;;;9.70;6.00;;;-4.00;99.90;;;;;;4407038;32;20256;-62
2022/03/08 05:02:45;;;;;;;8.52;5.97;;;-3.80;99.90;;;;;;4381757;32;20099;-63
2022/03/08 05:05:13;;;;;;;11.15;6.60;;;-4.00;99.90;;;;;;4395597;32;20077;-62
2022/03/08 05:07:40;;;;;;;9.05;5.68;;;-4.20;99.90;;;;;;4412151;32;20073;-63
2022/03/08 05:10:09;;;;;;;9.20;5.78;;;-4.20;99.90;;;;;;4407263;32;20612;-63
2022/03/08 05:12:37;;;;;;;11.35;7.22;;;-4.20;99.90;;;;;;4408574;32;20085;-63
2022/03/08 05:15:06;;;;;;;8.27;5.47;;;-4.50;99.90;;;;;;4381951;32;20160;-63
2022/03/08 05:17:32;;;;;;;7.35;5.20;;;-4.30;99.90;;;;;;4394271;32;20623;-63
2022/03/08 05:19:58;;;;;;;9.73;5.28;;;-4.00;99.90;;;;;;4406488;32;20530;-63
2022/03/08 05:22:25;;;;;;;8.15;5.62;;;-4.00;99.90;;;;;;4394266;32;20091;-63
2022/03/08 05:24:51;;;;;;;8.70;5.60;;;-3.80;99.90;;;;;;4406984;32;20065;-63
2022/03/08 05:27:17;;;;;;;10.20;6.40;;;-3.70;99.90;;;;;;4408434;32;20424;-63
2022/03/08 05:29:44;;;;;;;9.25;6.25;;;-3.90;99.90;;;;;;4408311;32;20089;-62
2022/03/08 05:32:10;;;;;;;9.13;5.80;;;-3.80;99.90;;;;;;4406650;32;20139;-62
2022/03/08 05:34:36;;;;;;;9.23;6.07;;;-3.60;99.90;;;;;;4406451;32;20085;-62
2022/03/08 05:37:03;;;;;;;9.98;6.32;;;-3.50;99.90;;;;;;4406641;32;20085;-62
2022/03/08 05:39:29;;;;;;;11.80;8.18;;;-3.40;99.90;;;;;;4406149;32;20074;-62
2022/03/08 05:41:56;;;;;;;11.63;7.60;;;-4.00;99.90;;;;;;4406177;32;20538;-63
2022/03/08 05:44:22;;;;;;;11.18;7.82;;;-4.30;99.90;;;;;;4407979;32;20157;-63
2022/03/08 05:46:49;;;;;;;11.25;7.32;;;-4.20;99.90;;;;;;4408069;32;20172;-63
2022/03/08 05:49:17;;;;;;;10.57;6.25;;;-4.50;99.90;;;;;;4406968;32;20080;-63
2022/03/08 05:51:43;;;;;;;12.90;8.73;;;-4.20;99.90;;;;;;4408488;32;20064;-62
2022/03/08 05:54:10;;;;;;;13.02;9.00;;;-4.30;99.90;;;;;;4406392;32;20452;-63
2022/03/08 05:56:36;;;;;;;11.90;8.75;;;-4.10;99.90;;;;;;4407667;32;20083;-64
2022/03/08 05:59:03;;;;;;;12.75;8.55;;;-4.10;99.90;;;;;;4393819;32;20111;-62
2022/03/08 06:01:29;;;;;;;12.15;7.75;;;-3.90;99.90;;;;;;4393051;32;20085;-63
2022/03/08 06:03:55;;;;;;;12.68;8.52;;;-3.60;99.90;;;;;;4406139;32;20099;-62
2022/03/08 06:06:21;;;;;;;11.88;8.55;;;-3.50;99.90;;;;;;4408148;32;20077;-63
2022/03/08 06:08:49;;;;;;;10.50;6.85;;;-3.40;99.90;;;;;;4406241;32;20085;-63
2022/03/08 06:11:16;;;;;;;13.00;7.35;;;-3.10;99.90;;;;;;4407652;32;20088;-62
2022/03/08 06:13:42;;;;;;;11.40;7.82;;;-3.00;99.90;;;;;;4406183;32;20085;-63
2022/03/08 06:16:09;;;;;;;13.18;8.32;;;-2.70;99.90;;;;;;4405585;32;20079;-63
2022/03/08 06:18:35;;;;;;;12.25;8.50;;;-2.90;99.90;;;;;;4407913;32;20153;-62
2022/03/08 06:21:01;;;;;;;13.02;8.95;;;-3.10;99.90;;;;;;4393505;32;20160;-63
2022/03/08 06:23:28;;;;;;;14.65;9.45;;;-3.60;99.90;;;;;;4407092;32;20583;-63
2022/03/08 06:25:54;;;;;;;14.20;8.75;;;-3.70;99.90;;;;;;4394443;32;20161;-63
2022/03/08 06:28:21;;;;;;;11.35;7.05;;;-3.40;99.90;;;;;;4408044;32;20089;-63
2022/03/08 06:30:47;;;;;;;10.20;6.60;;;-2.90;99.90;;;;;;4395335;32;20100;-62
2022/03/08 06:33:13;;;;;;;10.48;7.35;;;-2.80;99.90;;;;;;4410929;32;20065;-63
2022/03/08 06:35:40;;;;;;;13.48;8.88;;;-2.70;99.90;;;;;;4413327;32;20496;-62
2022/03/08 06:38:06;;;;;;;12.02;7.95;;;-3.00;99.90;;;;;;4405884;32;20475;-63
2022/03/08 06:40:32;;;;;;;13.77;9.35;;;-3.00;99.90;;;;;;4406881;32;20077;-63
2022/03/08 06:42:58;;;;;;;13.82;9.80;;;-3.00;99.90;;;;;;4407585;32;20069;-63
2022/03/08 06:45:25;;;;;;;14.50;10.27;;;-3.20;99.90;;;;;;4407241;32;20538;-62
2022/03/08 06:47:51;;;;;;;12.25;8.57;;;-3.00;99.90;;;;;;4407168;32;20088;-62
2022/03/08 06:50:17;;;;;;;18.00;10.82;;;-2.70;99.90;;;;;;4405685;32;20071;-62
2022/03/08 06:52:44;;;;;;;17.77;11.23;;;-3.10;99.90;;;;;;4405846;32;20156;-63
2022/03/08 06:55:10;;;;;;;18.20;12.13;;;-3.10;99.90;;;;;;4407277;32;20073;-63
2022/03/08 06:57:37;;;;;;;19.92;11.98;;;-3.20;99.90;;;;;;4405528;32;20084;-64
2022/03/08 07:00:07;;;;;;;21.62;12.73;;;-2.70;99.90;;;;;;4406227;32;20175;-62
2022/03/08 07:02:34;;;;;;;21.35;13.15;;;-3.00;99.90;;;;;;4405827;32;20156;-62
2022/03/08 07:05:14;;;;;;;22.48;13.60;;;-2.80;99.90;;;;;;3810498;37;20473;-63
2022/03/08 07:07:41;;;;;;;16.75;11.48;;;-2.60;99.90;;;;;;4378567;32;20078;-63
2022/03/08 07:10:08;;;;;;;19.27;12.48;;;-2.20;99.90;;;;;;4391413;32;20093;-63
2022/03/08 07:12:34;;;;;;;19.95;13.27;;;-2.60;99.90;;;;;;4404286;32;20515;-63
2022/03/08 07:15:00;;;;;;;18.45;12.57;;;-2.80;99.90;;;;;;4390331;32;20100;-63
2022/03/08 07:17:27;;;;;;;20.92;15.27;;;-2.70;99.90;;;;;;4405360;32;20541;-63
2022/03/08 07:19:53;;;;;;;21.05;15.00;;;-3.00;99.90;;;;;;4391232;32;20081;-63
2022/03/08 07:22:19;;;;;;;20.62;14.65;;;-2.60;99.90;;;;;;4390695;32;20083;-62
2022/03/08 07:24:46;;;;;;;19.30;13.43;;;-2.80;99.90;;;;;;4393059;32;20081;-63
2022/03/08 07:27:12;;;;;;;19.58;13.65;;;-2.60;99.90;;;;;;4391022;32;20081;-62
2022/03/08 07:29:39;;;;;;;15.82;11.27;;;-2.30;99.90;;;;;;4390285;32;20108;-62
2022/03/08 07:32:05;;;;;;;20.55;14.05;;;-2.30;99.90;;;;;;4377826;32;20455;-63
2022/03/08 07:34:32;;;;;;;22.77;14.65;;;-2.30;99.90;;;;;;4389961;32;20441;-62
2022/03/08 07:36:58;;;;;;;18.85;12.05;;;-2.20;99.90;;;;;;4390619;32;20097;-62
2022/03/08 07:39:25;;;;;;;18.45;12.75;;;-2.00;99.90;;;;;;4405305;32;20077;-62
2022/03/08 07:41:51;;;;;;;18.98;13.02;;;-2.30;99.90;;;;;;4391005;32;20070;-63
2022/03/08 07:44:18;;;;;;;18.80;13.25;;;-2.50;99.90;;;;;;4404079;32;20147;-63
2022/03/08 07:46:44;;;;;;;18.75;15.13;;;-2.30;99.90;;;;;;4390207;32;20077;-63
2022/03/08 07:49:10;;;;;;;20.40;14.95;;;-2.60;99.90;;;;;;4403894;32;20157;-62
2022/03/08 07:51:36;;;;;;;19.65;13.90;;;-2.70;99.90;;;;;;4403943;32;20093;-62
2022/03/08 07:54:03;;;;;;;19.15;11.95;;;-2.30;99.90;;;;;;4389627;32;20082;-63
2022/03/08 07:56:29;;;;;;;19.83;12.35;;;-2.20;99.90;;;;;;4403472;32;20070;-62
2022/03/08 07:58:56;;;;;;;18.80;12.40;;;-2.30;99.90;;;;;;4389716;32;20172;-63
2022/03/08 08:01:22;;;;;;;12.73;8.02;;;-1.60;99.90;;;;;;4374926;32;20077;-61
2022/03/08 08:03:49;;;;;;;15.13;9.80;;;-1.70;99.90;;;;;;4388529;32;20157;-62
2022/03/08 08:06:15;;;;;;;17.27;11.30;;;-1.40;99.90;;;;;;4375142;32;20084;-62
2022/03/08 08:08:41;;;;;;;13.93;8.70;;;-1.80;99.90;;;;;;4361660;32;20504;-63
2022/03/08 08:11:08;;;;;;;15.95;11.00;;;-1.10;99.90;;;;;;4388147;32;20097;-63
2022/03/08 08:13:34;;;;;;;16.10;11.10;;;-1.50;99.90;;;;;;4388259;32;20094;-61
2022/03/08 08:16:01;;;;;;;14.73;8.93;;;-1.50;99.90;;;;;;4381074;32;20496;-62
2022/03/08 08:18:28;;;;;;;17.60;12.40;;;-1.20;99.90;;;;;;4379012;32;20520;-63
2022/03/08 08:20:54;;;;;;;16.87;11.20;;;-1.30;99.90;;;;;;4378940;32;20122;-62
2022/03/08 08:23:20;;;;;;;17.05;10.82;;;-1.20;99.90;;;;;;4378378;32;20082;-61
2022/03/08 08:25:47;;;;;;;10.88;7.60;;;-1.40;99.90;;;;;;4365106;32;20074;-62
2022/03/08 08:28:13;;;;;;;10.90;7.40;;;-1.20;99.90;;;;;;4378078;32;20163;-63
2022/03/08 08:30:40;;;;;;;13.30;8.35;;;-0.80;99.90;;;;;;4378020;32;20096;-63
2022/03/08 08:33:06;;;;;;;8.77;6.62;;;-0.30;99.90;;;;;;4364153;32;20178;-61
2022/03/08 08:35:33;;;;;;;13.80;9.57;;;-1.00;99.90;;;;;;4364294;32;20149;-62
2022/03/08 08:37:59;;;;;;;12.32;8.27;;;-1.30;99.90;;;;;;4378215;32;20089;-62
2022/03/08 08:40:26;;;;;;;17.55;10.75;;;-0.70;99.90;;;;;;4363854;32;20501;-62
2022/03/08 08:42:52;;;;;;;14.98;10.30;;;-1.50;99.90;;;;;;4363994;32;20066;-61
2022/03/08 08:45:18;;;;;;;16.23;10.80;;;-1.50;99.90;;;;;;4364522;32;20090;-61
2022/03/08 08:47:45;;;;;;;13.48;9.05;;;-1.40;99.90;;;;;;4377633;32;20522;-62
2022/03/08 08:50:12;;;;;;;14.73;10.07;;;-1.40;99.90;;;;;;4351551;32;20080;-63
2022/03/08 08:52:38;;;;;;;17.48;12.37;;;-1.70;99.90;;;;;;4363790;32;20080;-63
2022/03/08 08:55:05;;;;;;;14.50;10.00;;;-1.80;99.90;;;;;;4364172;32;20528;-62
2022/03/08 08:57:33;;;;;;;14.85;10.05;;;-1.20;99.90;;;;;;4364936;32;20160;-63
2022/03/08 08:59:59;;;;;;;12.25;8.18;;;-1.40;99.90;;;;;;4352093;32;20468;-61
2022/03/08 09:02:25;;;;;;;10.95;6.68;;;-0.70;99.90;;;;;;4351396;32;20093;-62
2022/03/08 09:04:52;;;;;;;16.08;10.52;;;-0.50;99.90;;;;;;4363330;32;20088;-62
2022/03/08 09:07:18;;;;;;;14.43;9.50;;;-1.00;99.90;;;;;;4377576;32;20073;-63
2022/03/08 09:09:47;;;;;;;13.85;8.82;;;-0.50;99.90;;;;;;4363705;32;20171;-62
2022/03/08 09:12:13;;;;;;;18.42;10.48;;;-0.30;99.90;;;;;;4377768;32;20073;-64
2022/03/08 09:14:40;;;;;;;16.75;11.10;;;-0.60;99.90;;;;;;4363507;32;20069;-63
2022/03/08 09:17:06;;;;;;;13.65;7.53;;;-0.90;99.90;;;;;;4377346;32;20521;-63
2022/03/08 09:19:32;;;;;;;10.25;7.32;;;-1.00;99.90;;;;;;4351516;32;20082;-63
2022/03/08 09:21:59;;;;;;;10.23;7.10;;;-0.50;99.90;;;;;;4377435;32;20165;-63
2022/03/08 09:24:25;;;;;;;12.57;9.18;;;-0.50;99.90;;;;;;4377435;32;20166;-61
2022/03/08 09:26:51;;;;;;;9.07;6.45;;;-0.70;99.90;;;;;;4363103;32;20089;-62
2022/03/08 09:29:18;;;;;;;11.05;7.55;;;-0.50;99.90;;;;;;4377207;32;20531;-61
2022/03/08 09:31:45;;;;;;;9.25;6.70;;;-0.90;99.90;;;;;;4363643;32;20062;-63
2022/03/08 09:34:12;;;;;;;9.95;5.72;;;-0.40;99.90;;;;;;4377172;32;20115;-62
2022/03/08 09:36:39;;;;;;;8.32;5.87;;;0.10;99.90;;;;;;4363415;32;20528;-63
2022/03/08 09:39:06;;;;;;;11.07;6.93;;;0.50;99.90;;;;;;4363672;32;20231;-62
2022/03/08 09:41:33;;;;;;;8.75;5.30;;;-0.40;99.90;;;;;;4364473;32;20158;-63
2022/03/08 09:44:00;;;;;;;10.73;6.57;;;-0.40;99.90;;;;;;4365644;32;20085;-63
2022/03/08 09:46:26;;;;;;;9.85;5.57;;;-0.70;99.90;;;;;;4363243;32;20142;-62
2022/03/08 09:48:53;;;;;;;9.05;5.55;;;-0.30;99.90;;;;;;4376774;32;20091;-63
2022/03/08 09:51:20;;;;;;;7.80;4.85;;;-0.70;99.90;;;;;;4363305;32;20173;-63
2022/03/08 09:53:53;;;;;;;7.53;4.82;;;-0.50;99.90;;;;;;4377671;32;20094;-63
2022/03/08 09:56:19;;;;;;;8.57;5.30;;;-0.40;99.90;;;;;;4364271;32;20488;-63
2022/03/08 09:58:46;;;;;;;9.55;6.20;;;-0.60;99.90;;;;;;4376846;32;20070;-62
2022/03/08 10:01:12;;;;;;;8.55;5.35;;;-0.70;99.90;;;;;;4363035;32;20105;-63
2022/03/08 10:03:45;;;;;;;10.27;5.80;;;-0.60;99.90;;;;;;4362535;32;20504;-62
2022/03/08 10:06:12;;;;;;;6.78;4.90;;;-0.50;99.90;;;;;;4364009;32;20085;-63
2022/03/08 10:08:38;;;;;;;10.85;6.60;;;-0.20;99.90;;;;;;4363275;32;20089;-63
2022/03/08 10:11:11;;;;;;;11.48;6.90;;;-1.50;99.90;;;;;;4362959;32;20453;-63
2022/03/08 10:13:46;;;;;;;12.23;8.32;;;-1.00;99.90;;;;;;4376692;32;20460;-62
2022/03/08 10:16:24;;;;;;;11.20;7.75;;;-1.40;99.90;;;;;;4363590;32;20456;-63
2022/03/08 10:18:58;;;;;;;11.45;7.78;;;-1.60;99.90;;;;;;4377043;32;20090;-62
2022/03/08 10:21:36;;;;;;;12.25;6.87;;;-1.80;99.90;;;;;;4362821;32;20090;-63
2022/03/08 10:24:21;;;;;;;13.90;8.32;;;-1.50;99.90;;;;;;4362798;32;20085;-63
2022/03/08 10:26:50;;;;;;;9.77;6.28;;;-1.70;99.90;;;;;;4362887;32;20081;-62
2022/03/08 10:29:29;;;;;;;12.00;7.90;;;-1.20;99.90;;;;;;4363508;32;20089;-63
2022/03/08 10:32:16;;;;;;;13.90;7.87;;;-1.50;99.90;;;;;;4362976;32;20080;-63
2022/03/08 10:34:45;;;;;;;11.35;7.20;;;-1.60;99.90;;;;;;4376256;32;20114;-63
2022/03/08 10:37:24;;;;;;;10.68;6.97;;;-1.50;99.90;;;;;;4376630;32;20508;-62
2022/03/08 10:39:55;;;;;;;11.43;5.78;;;-1.60;99.90;;;;;;4363396;32;20086;-64
2022/03/08 10:42:25;;;;;;;9.07;5.40;;;-1.50;99.90;;;;;;4349958;32;20070;-63
2022/03/08 10:45:00;;;;;;;12.48;6.90;;;-1.70;99.90;;;;;;4362364;32;20169;-63
2022/03/08 10:47:26;;;;;;;10.48;7.18;;;-2.00;99.90;;;;;;4376065;32;20168;-63
2022/03/08 10:50:00;;;;;;;10.63;6.45;;;-1.80;99.90;;;;;;4362561;32;20085;-62
2022/03/08 10:52:32;;;;;;;12.18;7.30;;;-1.80;99.90;;;;;;4349976;32;20075;-63
2022/03/08 10:55:22;;;;;;;10.48;6.37;;;-1.90;99.90;;;;;;4376122;32;20544;-63
2022/03/08 10:57:54;;;;;;;11.80;6.90;;;-1.70;99.90;;;;;;4362212;32;20178;-63
2022/03/08 11:00:32;;;;;;;11.85;6.65;;;-2.00;99.90;;;;;;4363224;32;20143;-63
2022/03/08 11:03:09;;;;;;;11.40;7.40;;;-1.90;99.90;;;;;;4362172;32;20074;-61
2022/03/08 11:05:42;;;;;;;11.32;6.80;;;-2.30;99.90;;;;;;4362200;32;20516;-63
2022/03/08 11:08:10;;;;;;;9.65;5.47;;;-2.30;99.90;;;;;;4362577;32;20094;-63
2022/03/08 11:10:37;;;;;;;7.95;5.57;;;-2.30;99.90;;;;;;4349841;32;20055;-63
2022/03/08 11:13:05;;;;;;;9.38;6.10;;;-2.40;99.90;;;;;;4362518;32;20077;-63
2022/03/08 11:15:36;;;;;;;7.65;4.72;;;-1.90;99.90;;;;;;4362925;32;20063;-63
2022/03/08 11:18:11;;;;;;;8.95;5.22;;;-1.80;99.90;;;;;;4376160;32;20582;-63
2022/03/08 11:20:39;;;;;;;9.00;5.05;;;-1.90;99.90;;;;;;4362118;32;20142;-62
2022/03/08 11:23:06;;;;;;;7.10;4.95;;;-1.80;99.90;;;;;;4362538;32;20070;-62
2022/03/08 11:25:45;;;;;;;8.05;5.25;;;-1.70;99.90;;;;;;4350318;32;20078;-62
2022/03/08 11:28:13;;;;;;;7.80;4.97;;;-2.10;99.90;;;;;;4362045;32;20174;-62
2022/03/08 11:30:50;;;;;;;7.25;5.05;;;-2.00;99.90;;;;;;4362479;32;20166;-63
2022/03/08 11:34:09;;;;;;;6.90;4.30;;;-2.00;99.90;;;;;;4361714;32;20521;-62
2022/03/08 11:36:47;;;;;;;6.90;4.22;;;-2.20;99.90;;;;;;4349759;32;20158;-62
2022/03/08 11:39:29;;;;;;;8.77;5.40;;;-1.90;99.90;;;;;;4349640;32;20166;-62
2022/03/08 11:41:59;;;;;;;8.73;6.80;;;-2.10;99.90;;;;;;4350118;32;20082;-62
2022/03/08 11:44:31;;;;;;;7.90;4.62;;;-2.80;99.90;;;;;;4349522;32;20077;-63
2022/03/08 11:47:12;;;;;;;8.15;5.20;;;-2.70;99.90;;;;;;4349757;32;20462;-62
2022/03/08 11:49:56;;;;;;;10.10;5.32;;;-2.70;99.90;;;;;;4362369;32;20090;-62
2022/03/08 11:52:36;;;;;;;9.93;6.37;;;-2.70;99.90;;;;;;4365025;32;20164;-63
2022/03/08 11:55:10;;;;;;;8.38;5.53;;;-2.90;99.90;;;;;;4378634;32;20077;-63
2022/03/08 11:57:49;;;;;;;8.20;5.28;;;-2.90;99.90;;;;;;4365147;32;20597;-62
2022/03/08 12:00:20;;;;;;;7.70;5.00;;;-3.00;99.90;;;;;;4379503;32;20089;-61
2022/03/08 12:02:53;;;;;;;7.60;4.70;;;-3.20;99.90;;;;;;4380307;32;20523;-62
2022/03/08 12:05:38;;;;;;;8.35;5.10;;;-2.90;99.90;;;;;;4352625;32;20087;-62
2022/03/08 12:08:28;;;;;;;8.48;5.40;;;-2.80;99.90;;;;;;4379312;32;20097;-63
2022/03/08 12:11:28;;;;;;;9.20;5.93;;;-3.20;99.90;;;;;;4378670;32;20077;-63
2022/03/08 12:14:16;;;;;;;7.93;4.62;;;-3.40;99.90;;;;;;4378742;32;20176;-63
2022/03/08 12:16:52;;;;;;;8.00;5.12;;;-2.90;99.90;;;;;;4364473;32;20089;-62
2022/03/08 12:19:38;;;;;;;6.85;3.83;;;-3.30;99.90;;;;;;4353158;32;20097;-62
2022/03/08 12:22:18;;;;;;;8.80;5.17;;;-3.20;99.90;;;;;;4378362;32;20077;-62
2022/03/08 12:24:56;;;;;;;8.73;5.30;;;-3.10;99.90;;;;;;4364818;32;20166;-62
2022/03/08 12:27:24;;;;;;;8.20;6.03;;;-3.30;99.90;;;;;;4364515;32;20074;-62
2022/03/08 12:30:38;;;;;;;8.23;5.35;;;-3.30;99.90;;;;;;4364408;32;20074;-63
2022/03/08 12:33:04;;;;;;;8.73;6.28;;;-3.40;99.90;;;;;;4358088;32;20159;-64
2022/03/08 12:35:30;;;;;;;8.07;5.70;;;-3.60;99.90;;;;;;4364116;32;20161;-62
2022/03/08 12:38:00;;;;;;;7.70;4.78;;;-3.60;99.90;;;;;;4351879;32;20082;-63
2022/03/08 12:40:37;;;;;;;8.68;5.82;;;-3.20;99.90;;;;;;4351628;32;20073;-62
2022/03/08 12:43:12;;;;;;;7.75;5.03;;;-3.60;99.90;;;;;;4364479;32;20062;-63
2022/03/08 12:45:48;;;;;;;9.65;5.05;;;-3.60;99.90;;;;;;4377889;32;20081;-63
2022/03/08 12:48:18;;;;;;;8.90;5.10;;;-3.70;99.90;;;;;;4364340;32;20519;-61
2022/03/08 12:50:53;;;;;;;8.20;5.55;;;-3.70;99.90;;;;;;4364754;32;20077;-62